createdAt,value
2018-07-08T00:00:39.313Z,24.34
2018-07-08T00:01:19.860Z,24.32
2018-07-08T00:02:00.377Z,24.32
2018-07-08T00:02:40.903Z,24.31
2018-07-08T00:03:21.429Z,24.32
2018-07-08T00:04:01.940Z,24.39
2018-07-08T00:04:42.451Z,24.39
2018-07-08T00:05:22.979Z,24.39
2018-07-08T00:06:03.500Z,24.39
2018-07-08T00:06:44.025Z,24.39
2018-07-08T00:07:24.557Z,24.45
2018-07-08T00:08:05.089Z,24.45
2018-07-08T00:08:45.607Z,24.46
2018-07-08T00:09:26.129Z,24.43
2018-07-08T00:10:06.646Z,24.47
2018-07-08T00:10:47.183Z,24.46
2018-07-08T00:11:27.697Z,24.47
2018-07-08T00:12:08.224Z,24.53
2018-07-08T00:12:48.745Z,24.57
2018-07-08T00:13:30.025Z,24.49
2018-07-08T00:14:10.540Z,24.5
2018-07-08T00:14:51.079Z,24.37
2018-07-08T00:15:31.616Z,24.35
2018-07-08T00:16:12.158Z,24.45
2018-07-08T00:16:52.692Z,24.42
2018-07-08T00:17:33.213Z,24.37
2018-07-08T00:18:13.736Z,24.34
2018-07-08T00:18:54.261Z,24.45
2018-07-08T00:19:34.779Z,24.47
2018-07-08T00:20:15.327Z,24.47
2018-07-08T00:20:55.845Z,24.45
2018-07-08T00:21:36.385Z,24.49
2018-07-08T00:22:16.907Z,24.5
2018-07-08T00:22:57.425Z,24.5
2018-07-08T00:23:37.982Z,24.5
2018-07-08T00:24:18.499Z,24.39
2018-07-08T00:24:59.030Z,24.45
2018-07-08T00:25:39.547Z,24.37
2018-07-08T00:26:20.073Z,24.25
2018-07-08T00:27:00.605Z,24.34
2018-07-08T00:27:41.135Z,24.25
2018-07-08T00:28:21.650Z,24.31
2018-07-08T00:29:02.227Z,24.22
2018-07-08T00:29:42.742Z,24.3
2018-07-08T00:30:23.264Z,24.34
2018-07-08T00:31:03.801Z,24.34
2018-07-08T00:31:44.314Z,24.31
2018-07-08T00:32:24.844Z,24.27
2018-07-08T00:33:05.380Z,24.34
2018-07-08T00:33:45.910Z,24.31
2018-07-08T00:34:26.436Z,24.31
2018-07-08T00:35:06.949Z,24.31
2018-07-08T00:35:47.497Z,24.35
2018-07-08T00:36:28.040Z,24.4
2018-07-08T00:37:08.604Z,24.39
2018-07-08T00:37:49.126Z,24.45
2018-07-08T00:38:29.646Z,24.4
2018-07-08T00:39:10.184Z,24.3
2018-07-08T00:39:50.718Z,24.25
2018-07-08T00:40:31.232Z,24.34
2018-07-08T00:41:11.757Z,24.24
2018-07-08T00:41:52.276Z,24.3
2018-07-08T00:42:32.805Z,24.13
2018-07-08T00:43:13.360Z,24.27
2018-07-08T00:43:53.877Z,24.24
2018-07-08T00:44:34.399Z,24.09
2018-07-08T00:45:14.917Z,24.16
2018-07-08T00:45:55.461Z,24.13
2018-07-08T00:46:35.967Z,24.27
2018-07-08T00:47:16.496Z,24.2
2018-07-08T00:47:57.019Z,24.3
2018-07-08T00:48:37.548Z,24.24
2018-07-08T00:49:18.074Z,24.27
2018-07-08T00:49:58.599Z,24.24
2018-07-08T00:50:39.122Z,24.16
2018-07-08T00:51:19.652Z,24.24
2018-07-08T00:52:00.169Z,24.22
2018-07-08T00:52:40.708Z,24.2
2018-07-08T00:53:21.247Z,24.24
2018-07-08T00:54:01.769Z,24.18
2018-07-08T00:54:42.310Z,24.18
2018-07-08T00:55:22.835Z,24.28
2018-07-08T00:56:03.359Z,24.27
2018-07-08T00:56:43.884Z,24.31
2018-07-08T00:57:24.412Z,24.31
2018-07-08T00:58:04.947Z,24.3
2018-07-08T00:58:45.477Z,24.3
2018-07-08T00:59:25.996Z,24.35
2018-07-08T01:00:06.520Z,24.31
2018-07-08T01:00:47.038Z,24.24
2018-07-08T01:01:27.557Z,24.3
2018-07-08T01:02:08.138Z,24.27
2018-07-08T01:02:48.672Z,24.22
2018-07-08T01:03:29.188Z,24.22
2018-07-08T01:04:10.687Z,24.25
2018-07-08T01:04:51.237Z,24.22
2018-07-08T01:05:31.777Z,24.24
2018-07-08T01:06:12.298Z,24.21
2018-07-08T01:06:52.838Z,24.27
2018-07-08T01:07:33.363Z,24.34
2018-07-08T01:08:13.906Z,24.24
2018-07-08T01:08:54.425Z,24.21
2018-07-08T01:09:34.956Z,24.3
2018-07-08T01:10:15.477Z,24.25
2018-07-08T01:10:56.021Z,24.31
2018-07-08T01:11:36.539Z,24.28
2018-07-08T01:12:17.066Z,24.35
2018-07-08T01:12:57.603Z,24.22
2018-07-08T01:13:38.117Z,24.22
2018-07-08T01:14:18.627Z,24.27
2018-07-08T01:14:59.148Z,24.13
2018-07-08T01:15:39.675Z,24.27
2018-07-08T01:16:20.192Z,24.24
2018-07-08T01:17:00.729Z,24.31
2018-07-08T01:17:41.244Z,24.31
2018-07-08T01:18:21.781Z,24.31
2018-07-08T01:19:02.291Z,24.3
2018-07-08T01:19:42.820Z,24.25
2018-07-08T01:20:23.342Z,24.27
2018-07-08T01:21:03.858Z,24.21
2018-07-08T01:21:44.372Z,24.25
2018-07-08T01:22:24.895Z,24.2
2018-07-08T01:23:06.000Z,24.22
2018-07-08T01:23:46.522Z,24.22
2018-07-08T01:24:27.043Z,24.28
2018-07-08T01:25:07.565Z,24.28
2018-07-08T01:25:48.095Z,24.27
2018-07-08T01:26:28.619Z,24.34
2018-07-08T01:27:09.144Z,24.27
2018-07-08T01:27:49.673Z,24.31
2018-07-08T01:28:30.197Z,24.3
2018-07-08T01:29:10.712Z,24.42
2018-07-08T01:29:51.237Z,24.4
2018-07-08T01:30:31.773Z,24.32
2018-07-08T01:31:12.279Z,24.42
2018-07-08T01:31:52.800Z,24.34
2018-07-08T01:32:33.308Z,24.24
2018-07-08T01:33:13.823Z,24.27
2018-07-08T01:33:54.350Z,24.3
2018-07-08T01:34:34.867Z,24.39
2018-07-08T01:35:15.397Z,24.31
2018-07-08T01:35:55.914Z,24.3
2018-07-08T01:36:36.439Z,24.22
2018-07-08T01:37:16.955Z,24.18
2018-07-08T01:37:57.495Z,24.15
2018-07-08T01:38:38.031Z,24.13
2018-07-08T01:39:18.559Z,24.27
2018-07-08T01:39:59.076Z,24.12
2018-07-08T01:40:39.684Z,24.15
2018-07-08T01:41:20.196Z,24.12
2018-07-08T01:42:00.723Z,24.18
2018-07-08T01:42:41.249Z,24.05
2018-07-08T01:43:21.769Z,24.09
2018-07-08T01:44:02.286Z,24.15
2018-07-08T01:44:42.813Z,24.03
2018-07-08T01:45:23.363Z,24.03
2018-07-08T01:46:03.881Z,23.87
2018-07-08T01:46:44.416Z,23.87
2018-07-08T01:47:24.937Z,23.9
2018-07-08T01:48:05.453Z,23.88
2018-07-08T01:48:45.971Z,23.85
2018-07-08T01:49:26.489Z,23.88
2018-07-08T01:50:06.999Z,23.93
2018-07-08T01:50:47.530Z,23.85
2018-07-08T01:51:28.054Z,23.85
2018-07-08T01:52:08.589Z,23.87
2018-07-08T01:52:49.141Z,23.91
2018-07-08T01:53:29.659Z,23.87
2018-07-08T01:54:10.182Z,23.87
2018-07-08T01:54:50.719Z,23.97
2018-07-08T01:55:31.232Z,24
2018-07-08T01:56:11.765Z,24.05
2018-07-08T01:56:52.282Z,24
2018-07-08T01:57:32.794Z,23.88
2018-07-08T01:58:13.330Z,23.93
2018-07-08T01:58:53.855Z,24.02
2018-07-08T01:59:34.371Z,24.05
2018-07-08T02:00:14.894Z,24.02
2018-07-08T02:00:55.424Z,23.94
2018-07-08T02:01:35.957Z,24.05
2018-07-08T02:02:16.485Z,24.05
2018-07-08T02:02:56.996Z,24.06
2018-07-08T02:03:37.519Z,24.06
2018-07-08T02:04:18.049Z,24.02
2018-07-08T02:04:58.569Z,23.88
2018-07-08T02:05:39.092Z,23.95
2018-07-08T02:06:19.619Z,23.87
2018-07-08T02:07:00.218Z,23.94
2018-07-08T02:07:40.675Z,23.88
2018-07-08T02:08:21.211Z,23.8
2018-07-08T02:09:01.740Z,23.7
2018-07-08T02:09:42.255Z,23.73
2018-07-08T02:10:22.770Z,23.58
2018-07-08T02:11:03.287Z,23.6
2018-07-08T02:11:43.812Z,23.66
2018-07-08T02:12:24.334Z,23.66
2018-07-08T02:13:04.849Z,23.6
2018-07-08T02:13:45.376Z,23.61
2018-07-08T02:14:25.902Z,23.73
2018-07-08T02:15:06.430Z,23.63
2018-07-08T02:15:46.952Z,23.65
2018-07-08T02:16:27.479Z,23.58
2018-07-08T02:17:07.991Z,23.6
2018-07-08T02:17:48.500Z,23.57
2018-07-08T02:18:29.042Z,23.47
2018-07-08T02:19:09.570Z,23.47
2018-07-08T02:19:50.083Z,23.39
2018-07-08T02:20:30.607Z,23.46
2018-07-08T02:21:11.118Z,23.4
2018-07-08T02:21:51.650Z,23.43
2018-07-08T02:22:32.163Z,23.5
2018-07-08T02:23:12.686Z,23.4
2018-07-08T02:23:53.207Z,23.48
2018-07-08T02:24:33.731Z,23.36
2018-07-08T02:25:14.276Z,23.48
2018-07-08T02:25:54.802Z,23.55
2018-07-08T02:26:35.320Z,23.46
2018-07-08T02:27:15.850Z,23.43
2018-07-08T02:27:56.370Z,23.42
2018-07-08T02:28:36.898Z,23.48
2018-07-08T02:29:17.418Z,23.4
2018-07-08T02:29:57.949Z,23.5
2018-07-08T02:30:38.470Z,23.5
2018-07-08T02:31:18.996Z,23.46
2018-07-08T02:32:00.519Z,23.58
2018-07-08T02:32:41.036Z,23.4
2018-07-08T02:33:21.595Z,23.46
2018-07-08T02:34:02.128Z,23.47
2018-07-08T02:34:42.640Z,23.5
2018-07-08T02:35:23.154Z,23.36
2018-07-08T02:36:03.680Z,23.42
2018-07-08T02:36:44.208Z,23.38
2018-07-08T02:37:24.737Z,23.36
2018-07-08T02:38:05.265Z,23.48
2018-07-08T02:38:45.796Z,23.35
2018-07-08T02:39:26.330Z,23.31
2018-07-08T02:40:06.861Z,23.38
2018-07-08T02:40:47.393Z,23.36
2018-07-08T02:41:27.938Z,23.35
2018-07-08T02:42:08.418Z,23.35
2018-07-08T02:42:48.947Z,23.42
2018-07-08T02:43:29.472Z,23.42
2018-07-08T02:44:09.991Z,23.43
2018-07-08T02:44:50.523Z,23.36
2018-07-08T02:45:31.053Z,23.48
2018-07-08T02:46:11.574Z,23.42
2018-07-08T02:46:52.098Z,23.42
2018-07-08T02:47:32.617Z,23.33
2018-07-08T02:48:13.124Z,23.36
2018-07-08T02:48:53.663Z,23.39
2018-07-08T02:49:34.191Z,23.43
2018-07-08T02:50:14.716Z,23.54
2018-07-08T02:50:56.099Z,23.4
2018-07-08T02:51:36.609Z,23.48
2018-07-08T02:52:17.132Z,23.5
2018-07-08T02:52:57.647Z,23.42
2018-07-08T02:53:38.173Z,23.38
2018-07-08T02:54:18.703Z,23.38
2018-07-08T02:54:59.233Z,23.4
2018-07-08T02:55:39.746Z,23.43
2018-07-08T02:56:20.263Z,23.43
2018-07-08T02:57:00.791Z,23.42
2018-07-08T02:57:41.309Z,23.48
2018-07-08T02:58:21.849Z,23.4
2018-07-08T02:59:02.459Z,23.47
2018-07-08T02:59:42.985Z,23.39
2018-07-08T03:00:23.519Z,23.4
2018-07-08T03:01:04.044Z,23.39
2018-07-08T03:01:44.569Z,23.39
2018-07-08T03:02:25.093Z,23.36
2018-07-08T03:03:05.608Z,23.47
2018-07-08T03:03:46.199Z,23.36
2018-07-08T03:04:26.736Z,23.35
2018-07-08T03:05:07.277Z,23.35
2018-07-08T03:05:47.771Z,23.33
2018-07-08T03:06:28.302Z,23.31
2018-07-08T03:07:08.818Z,23.32
2018-07-08T03:07:49.342Z,23.28
2018-07-08T03:08:29.862Z,23.28
2018-07-08T03:09:10.382Z,23.39
2018-07-08T03:09:50.892Z,23.36
2018-07-08T03:10:31.417Z,23.38
2018-07-08T03:11:11.935Z,23.39
2018-07-08T03:11:52.487Z,23.43
2018-07-08T03:12:33.007Z,23.38
2018-07-08T03:13:13.527Z,23.39
2018-07-08T03:13:54.066Z,23.48
2018-07-08T03:14:34.564Z,23.47
2018-07-08T03:15:15.088Z,23.38
2018-07-08T03:15:55.613Z,23.4
2018-07-08T03:16:36.158Z,23.42
2018-07-08T03:17:16.676Z,23.42
2018-07-08T03:17:57.195Z,23.5
2018-07-08T03:18:37.734Z,23.43
2018-07-08T03:19:18.249Z,23.48
2018-07-08T03:19:58.773Z,23.46
2018-07-08T03:20:39.294Z,23.4
2018-07-08T03:21:19.818Z,23.38
2018-07-08T03:22:00.354Z,23.42
2018-07-08T03:22:40.885Z,23.38
2018-07-08T03:23:21.393Z,23.4
2018-07-08T03:24:01.925Z,23.33
2018-07-08T03:24:42.447Z,23.35
2018-07-08T03:25:22.963Z,23.38
2018-07-08T03:26:03.501Z,23.31
2018-07-08T03:26:44.015Z,23.33
2018-07-08T03:27:24.572Z,23.32
2018-07-08T03:28:05.100Z,23.31
2018-07-08T03:28:45.631Z,23.28
2018-07-08T03:29:26.149Z,23.25
2018-07-08T03:30:06.671Z,23.23
2018-07-08T03:30:47.197Z,23.25
2018-07-08T03:31:27.716Z,23.28
2018-07-08T03:32:08.236Z,23.39
2018-07-08T03:32:48.771Z,23.46
2018-07-08T03:33:29.286Z,23.25
2018-07-08T03:34:09.820Z,23.31
2018-07-08T03:34:50.344Z,23.39
2018-07-08T03:35:30.862Z,23.48
2018-07-08T03:36:11.401Z,23.36
2018-07-08T03:36:51.927Z,23.43
2018-07-08T03:37:32.481Z,23.27
2018-07-08T03:38:12.970Z,23.36
2018-07-08T03:38:53.486Z,23.31
2018-07-08T03:39:34.009Z,23.36
2018-07-08T03:40:14.559Z,23.38
2018-07-08T03:40:55.205Z,23.25
2018-07-08T03:41:35.728Z,23.31
2018-07-08T03:42:16.248Z,23.31
2018-07-08T03:42:56.769Z,23.27
2018-07-08T03:43:37.293Z,23.32
2018-07-08T03:44:17.822Z,23.23
2018-07-08T03:44:58.344Z,23.19
2018-07-08T03:45:38.856Z,23.33
2018-07-08T03:46:20.048Z,23.27
2018-07-08T03:47:00.564Z,23.32
2018-07-08T03:47:41.082Z,23.31
2018-07-08T03:48:21.601Z,23.36
2018-07-08T03:49:02.127Z,23.25
2018-07-08T03:49:42.656Z,23.2
2018-07-08T03:50:23.914Z,23.2
2018-07-08T03:51:04.437Z,23.31
2018-07-08T03:51:44.961Z,23.17
2018-07-08T03:52:25.464Z,23.1
2018-07-08T03:53:06.007Z,23.15
2018-07-08T03:53:46.581Z,23.17
2018-07-08T03:54:27.095Z,23.32
2018-07-08T03:55:07.603Z,23.31
2018-07-08T03:55:48.135Z,23.28
2018-07-08T03:56:28.666Z,23.1
2018-07-08T03:57:09.206Z,23.13
2018-07-08T03:57:49.728Z,23.2
2018-07-08T03:58:30.253Z,23.31
2018-07-08T03:59:10.807Z,23.17
2018-07-08T03:59:51.310Z,23.1
2018-07-08T04:00:31.830Z,23.25
2018-07-08T04:01:12.339Z,23.25
2018-07-08T04:01:52.859Z,23.25
2018-07-08T04:02:33.526Z,23.27
2018-07-08T04:03:14.059Z,23.27
2018-07-08T04:03:54.586Z,23.32
2018-07-08T04:04:35.121Z,23.23
2018-07-08T04:05:15.641Z,23.31
2018-07-08T04:05:56.163Z,23.4
2018-07-08T04:06:36.681Z,23.32
2018-07-08T04:07:17.206Z,23.32
2018-07-08T04:07:57.724Z,23.27
2018-07-08T04:08:38.259Z,23.31
2018-07-08T04:09:18.772Z,23.35
2018-07-08T04:09:59.289Z,23.46
2018-07-08T04:10:39.821Z,23.35
2018-07-08T04:11:20.344Z,23.39
2018-07-08T04:12:00.864Z,23.38
2018-07-08T04:12:41.397Z,23.36
2018-07-08T04:13:21.922Z,23.47
2018-07-08T04:14:02.457Z,23.46
2018-07-08T04:14:42.988Z,23.4
2018-07-08T04:15:23.603Z,23.33
2018-07-08T04:16:04.021Z,23.47
2018-07-08T04:16:45.068Z,23.31
2018-07-08T04:17:25.076Z,23.33
2018-07-08T04:18:05.591Z,23.42
2018-07-08T04:18:46.112Z,23.39
2018-07-08T04:19:26.634Z,23.54
2018-07-08T04:20:07.157Z,23.61
2018-07-08T04:20:47.702Z,23.55
2018-07-08T04:21:28.206Z,23.6
2018-07-08T04:22:08.735Z,23.61
2018-07-08T04:22:49.253Z,23.73
2018-07-08T04:23:29.772Z,23.57
2018-07-08T04:24:10.295Z,23.54
2018-07-08T04:24:50.823Z,23.48
2018-07-08T04:25:31.466Z,23.6
2018-07-08T04:26:11.989Z,23.72
2018-07-08T04:26:52.507Z,23.75
2018-07-08T04:27:33.023Z,23.6
2018-07-08T04:28:13.544Z,23.46
2018-07-08T04:28:54.069Z,23.48
2018-07-08T04:29:34.603Z,23.53
2018-07-08T04:30:15.128Z,23.47
2018-07-08T04:30:55.649Z,23.51
2018-07-08T04:31:36.196Z,23.72
2018-07-08T04:32:16.739Z,23.73
2018-07-08T04:32:57.273Z,23.72
2018-07-08T04:33:37.813Z,23.76
2018-07-08T04:34:18.331Z,23.8
2018-07-08T04:34:58.880Z,23.73
2018-07-08T04:35:39.403Z,23.72
2018-07-08T04:36:19.924Z,23.68
2018-07-08T04:37:00.460Z,23.73
2018-07-08T04:37:40.972Z,23.7
2018-07-08T04:38:21.499Z,23.72
2018-07-08T04:39:02.025Z,23.72
2018-07-08T04:39:42.563Z,23.87
2018-07-08T04:40:23.080Z,24.02
2018-07-08T04:41:03.616Z,24.25
2018-07-08T04:41:44.144Z,24.4
2018-07-08T04:42:24.659Z,24.55
2018-07-08T04:43:05.188Z,24.99
2018-07-08T04:43:45.710Z,25.25
2018-07-08T04:44:26.232Z,25.58
2018-07-08T04:45:06.769Z,26.15
2018-07-08T04:45:47.290Z,26.8
2018-07-08T04:46:27.813Z,27.47
2018-07-08T04:47:08.350Z,27.37
2018-07-08T04:47:48.877Z,26.82
2018-07-08T04:48:29.412Z,26.35
2018-07-08T04:49:09.958Z,25.94
2018-07-08T04:49:50.440Z,25.52
2018-07-08T04:50:30.953Z,25.32
2018-07-08T04:51:11.566Z,25.24
2018-07-08T04:51:52.013Z,25.14
2018-07-08T04:52:32.547Z,25.18
2018-07-08T04:53:13.071Z,25.15
2018-07-08T04:53:53.593Z,24.98
2018-07-08T04:54:34.119Z,24.88
2018-07-08T04:55:14.632Z,24.87
2018-07-08T04:55:55.154Z,24.84
2018-07-08T04:56:35.667Z,24.78
2018-07-08T04:57:16.199Z,24.9
2018-07-08T04:57:56.732Z,24.99
2018-07-08T04:58:37.253Z,25.08
2018-07-08T04:59:17.773Z,24.88
2018-07-08T04:59:58.321Z,24.83
2018-07-08T05:00:38.845Z,24.65
2018-07-08T05:01:19.374Z,24.62
2018-07-08T05:01:59.909Z,24.55
2018-07-08T05:02:40.448Z,24.49
2018-07-08T05:03:20.969Z,24.68
2018-07-08T05:04:01.499Z,24.76
2018-07-08T05:04:42.009Z,24.87
2018-07-08T05:05:22.533Z,24.87
2018-07-08T05:06:03.049Z,24.88
2018-07-08T05:06:43.576Z,24.88
2018-07-08T05:07:24.120Z,24.88
2018-07-08T05:08:04.644Z,24.81
2018-07-08T05:08:45.160Z,24.67
2018-07-08T05:09:25.698Z,24.58
2018-07-08T05:10:06.226Z,24.5
2018-07-08T05:10:46.748Z,24.39
2018-07-08T05:11:27.296Z,24.42
2018-07-08T05:12:07.824Z,24.39
2018-07-08T05:12:48.346Z,24.37
2018-07-08T05:13:28.869Z,24.32
2018-07-08T05:14:09.401Z,24.34
2018-07-08T05:14:49.924Z,24.27
2018-07-08T05:15:30.447Z,24.4
2018-07-08T05:16:10.972Z,24.37
2018-07-08T05:16:51.491Z,24.45
2018-07-08T05:17:32.015Z,24.37
2018-07-08T05:18:12.578Z,24.42
2018-07-08T05:18:53.104Z,24.45
2018-07-08T05:19:33.635Z,24.43
2018-07-08T05:20:14.172Z,24.46
2018-07-08T05:20:54.689Z,24.47
2018-07-08T05:21:35.213Z,24.52
2018-07-08T05:22:15.719Z,24.55
2018-07-08T05:22:56.252Z,24.4
2018-07-08T05:23:36.769Z,24.42
2018-07-08T05:24:17.294Z,24.37
2018-07-08T05:24:57.823Z,24.52
2018-07-08T05:25:38.342Z,24.76
2018-07-08T05:26:18.866Z,24.78
2018-07-08T05:26:59.374Z,24.99
2018-07-08T05:27:39.900Z,25.02
2018-07-08T05:28:20.424Z,25
2018-07-08T05:29:00.937Z,24.81
2018-07-08T05:29:41.515Z,24.64
2018-07-08T05:30:21.986Z,24.68
2018-07-08T05:31:02.510Z,24.6
2018-07-08T05:31:43.030Z,24.64
2018-07-08T05:32:23.549Z,24.64
2018-07-08T05:33:04.088Z,24.64
2018-07-08T05:33:44.605Z,24.78
2018-07-08T05:34:25.127Z,25.09
2018-07-08T05:35:05.650Z,25.3
2018-07-08T05:35:46.247Z,25.3
2018-07-08T05:36:26.705Z,25.21
2018-07-08T05:37:07.233Z,25.03
2018-07-08T05:37:47.760Z,24.9
2018-07-08T05:38:28.265Z,24.71
2018-07-08T05:39:08.788Z,24.47
2018-07-08T05:39:50.215Z,24.53
2018-07-08T05:40:30.721Z,24.62
2018-07-08T05:41:11.313Z,24.57
2018-07-08T05:41:51.842Z,24.46
2018-07-08T05:42:32.348Z,24.45
2018-07-08T05:43:12.886Z,24.49
2018-07-08T05:43:53.425Z,24.46
2018-07-08T05:44:33.942Z,24.43
2018-07-08T05:45:14.480Z,24.37
2018-07-08T05:45:54.990Z,24.42
2018-07-08T05:46:35.524Z,24.32
2018-07-08T05:47:16.043Z,24.37
2018-07-08T05:47:56.554Z,24.35
2018-07-08T05:48:37.074Z,24.24
2018-07-08T05:49:17.631Z,24.31
2018-07-08T05:49:58.120Z,24.16
2018-07-08T05:50:38.810Z,24.09
2018-07-08T05:51:19.257Z,24.21
2018-07-08T05:51:59.779Z,24.28
2018-07-08T05:52:40.454Z,24.2
2018-07-08T05:53:20.903Z,24.25
2018-07-08T05:54:01.430Z,24.28
2018-07-08T05:54:41.947Z,24.22
2018-07-08T05:55:22.501Z,24.28
2018-07-08T05:56:03.021Z,24.06
2018-07-08T05:57:56.157Z,24.09
2018-07-08T05:58:36.727Z,24.13
2018-07-08T05:59:17.190Z,24.21
2018-07-08T05:59:57.727Z,24.28
2018-07-08T06:00:38.268Z,24.37
2018-07-08T06:01:18.788Z,24.62
2018-07-08T06:02:00.033Z,24.88
2018-07-08T06:02:40.567Z,25.09
2018-07-08T06:03:21.115Z,25.35
2018-07-08T06:04:01.641Z,25.67
2018-07-08T06:04:42.300Z,25.83
2018-07-08T06:05:22.724Z,26.01
2018-07-08T06:06:03.252Z,26.36
2018-07-08T06:06:43.775Z,26.35
2018-07-08T06:07:24.299Z,26.55
2018-07-08T06:08:04.826Z,26.67
2018-07-08T06:08:45.440Z,26.8
2018-07-08T06:09:25.892Z,26.84
2018-07-08T06:10:06.425Z,26.87
2018-07-08T06:10:47.542Z,26.88
2018-07-08T06:11:28.171Z,27.12
2018-07-08T06:12:08.613Z,27.18
2018-07-08T06:12:49.131Z,27.24
2018-07-08T06:13:29.640Z,27.31
2018-07-08T06:14:10.164Z,27.34
2018-07-08T06:14:50.725Z,27.25
2018-07-08T06:15:31.336Z,27.25
2018-07-08T06:16:11.766Z,27.4
2018-07-08T06:16:52.320Z,27.57
2018-07-08T06:17:32.766Z,27.44
2018-07-08T06:18:13.281Z,27.34
2018-07-08T06:18:53.794Z,27.37
2018-07-08T06:19:34.331Z,27.51
2018-07-08T06:20:14.845Z,27.67
2018-07-08T06:20:55.363Z,27.66
2018-07-08T06:21:35.876Z,27.75
2018-07-08T06:22:16.417Z,27.69
2018-07-08T06:22:57.046Z,27.62
2018-07-08T06:23:37.564Z,27.75
2018-07-08T06:24:18.159Z,27.87
2018-07-08T06:24:58.679Z,27.85
2018-07-08T06:25:39.253Z,27.88
2018-07-08T06:26:19.782Z,27.75
2018-07-08T06:27:00.296Z,27.84
2018-07-08T06:27:40.764Z,27.79
2018-07-08T06:28:21.314Z,27.93
2018-07-08T06:29:01.832Z,28.15
2018-07-08T06:29:42.381Z,28.33
2018-07-08T06:30:23.233Z,28.25
2018-07-08T06:31:03.446Z,28.29
2018-07-08T06:31:44.050Z,28.25
2018-07-08T06:32:24.474Z,28.19
2018-07-08T06:33:04.956Z,28.27
2018-07-08T06:33:45.453Z,28.39
2018-07-08T06:34:25.967Z,28.31
2018-07-08T06:35:06.485Z,28.31
2018-07-08T06:35:46.984Z,28.41
2018-07-08T06:36:27.502Z,28.36
2018-07-08T06:37:08.029Z,28.15
2018-07-08T06:37:48.559Z,28.19
2018-07-08T06:38:29.089Z,28.22
2018-07-08T06:39:09.707Z,28.19
2018-07-08T06:39:50.110Z,28.24
2018-07-08T06:40:30.648Z,28.24
2018-07-08T06:41:11.110Z,28.22
2018-07-08T06:41:51.638Z,28.27
2018-07-08T06:42:32.145Z,28.24
2018-07-08T06:43:12.747Z,28.11
2018-07-08T06:43:53.969Z,28.04
2018-07-08T06:44:34.494Z,28
2018-07-08T06:45:15.085Z,28.02
2018-07-08T06:45:55.592Z,27.99
2018-07-08T06:46:36.052Z,27.87
2018-07-08T06:47:16.589Z,27.85
2018-07-08T06:47:57.117Z,28.06
2018-07-08T06:48:38.241Z,28.06
2018-07-08T06:49:18.757Z,28.18
2018-07-08T06:49:59.285Z,28.21
2018-07-08T06:50:39.818Z,28.31
2018-07-08T06:51:20.355Z,28.3
2018-07-08T06:52:00.932Z,28.25
2018-07-08T06:52:41.373Z,28.25
2018-07-08T06:53:21.870Z,28.33
2018-07-08T06:54:02.408Z,28.31
2018-07-08T06:54:42.918Z,28.27
2018-07-08T06:55:23.448Z,28.29
2018-07-08T06:56:03.983Z,28.06
2018-07-08T06:56:44.504Z,28.21
2018-07-08T06:57:25.031Z,28.24
2018-07-08T06:58:05.585Z,28.33
2018-07-08T06:58:46.135Z,28.37
2018-07-08T06:59:26.663Z,28.27
2018-07-08T07:00:07.191Z,28.22
2018-07-08T07:00:47.726Z,28.3
2018-07-08T07:01:28.227Z,28.18
2018-07-08T07:02:08.749Z,28.14
2018-07-08T07:02:49.237Z,28.27
2018-07-08T07:03:29.747Z,28.22
2018-07-08T07:04:10.271Z,28.27
2018-07-08T07:04:50.795Z,28.25
2018-07-08T07:05:31.333Z,28.24
2018-07-08T07:06:11.857Z,28.19
2018-07-08T07:06:52.409Z,28.31
2018-07-08T07:07:33.130Z,28.24
2018-07-08T07:08:13.653Z,28.27
2018-07-08T07:08:54.205Z,28.25
2018-07-08T07:09:34.734Z,28.11
2018-07-08T07:10:15.260Z,28.19
2018-07-08T07:10:55.804Z,28.12
2018-07-08T07:11:36.315Z,28.27
2018-07-08T07:12:16.884Z,28.25
2018-07-08T07:12:58.061Z,28.37
2018-07-08T07:13:38.595Z,28.29
2018-07-08T07:14:19.124Z,28.14
2018-07-08T07:14:59.649Z,28.14
2018-07-08T07:15:40.182Z,28.07
2018-07-08T07:16:20.727Z,28.07
2018-07-08T07:17:01.315Z,28.12
2018-07-08T07:17:41.838Z,28.09
2018-07-08T07:18:22.348Z,28.18
2018-07-08T07:19:02.909Z,28.17
2018-07-08T07:19:43.406Z,28.25
2018-07-08T07:20:23.935Z,28.19
2018-07-08T07:21:04.458Z,28.34
2018-07-08T07:21:44.994Z,28.34
2018-07-08T07:22:25.517Z,28.27
2018-07-08T07:23:06.063Z,28.3
2018-07-08T07:23:46.568Z,28.31
2018-07-08T07:24:27.077Z,28.3
2018-07-08T07:25:07.632Z,28.29
2018-07-08T07:25:48.240Z,28.37
2018-07-08T07:26:28.744Z,28.18
2018-07-08T07:27:09.251Z,28.12
2018-07-08T07:27:49.854Z,28.17
2018-07-08T07:29:27.776Z,28.43
2018-07-08T07:30:08.302Z,28.31
2018-07-08T07:30:48.796Z,28.12
2018-07-08T07:31:29.406Z,28.19
2018-07-08T07:32:09.940Z,28.27
2018-07-08T07:32:50.485Z,28.36
2018-07-08T07:33:31.009Z,28.39
2018-07-08T07:34:11.541Z,28.33
2018-07-08T07:34:52.070Z,28.39
2018-07-08T07:35:32.671Z,28.43
2018-07-08T07:36:13.122Z,28.43
2018-07-08T07:36:53.677Z,28.37
2018-07-08T07:37:34.222Z,28.34
2018-07-08T07:38:14.914Z,28.48
2018-07-08T07:38:55.339Z,28.43
2018-07-08T07:39:35.956Z,28.46
2018-07-08T07:40:16.409Z,28.46
2018-07-08T07:40:56.895Z,28.41
2018-07-08T07:41:37.388Z,28.33
2018-07-08T07:42:17.869Z,28.49
2018-07-08T07:42:58.380Z,28.61
2018-07-08T07:43:38.870Z,28.3
2018-07-08T07:44:19.423Z,28.27
2018-07-08T07:45:00.015Z,28.44
2018-07-08T07:45:40.586Z,28.25
2018-07-08T07:46:21.098Z,28.44
2018-07-08T07:47:01.674Z,28.46
2018-07-08T07:47:42.227Z,28.56
2018-07-08T07:48:22.693Z,28.48
2018-07-08T07:49:03.239Z,28.54
2018-07-08T07:49:43.709Z,28.61
2018-07-08T07:50:25.139Z,28.68
2018-07-08T07:51:05.610Z,28.73
2018-07-08T07:51:46.181Z,28.64
2018-07-08T07:52:26.720Z,28.54
2018-07-08T07:53:07.165Z,28.56
2018-07-08T07:53:47.638Z,28.46
2018-07-08T07:54:28.142Z,28.49
2018-07-08T07:55:08.689Z,28.58
2018-07-08T07:55:49.213Z,28.58
2018-07-08T07:56:29.801Z,28.52
2018-07-08T07:57:10.230Z,28.36
2018-07-08T07:57:50.810Z,28.4
2018-07-08T07:58:31.297Z,28.51
2018-07-08T07:59:11.766Z,28.59
2018-07-08T07:59:52.343Z,28.61
2018-07-08T08:00:32.852Z,28.64
2018-07-08T08:01:13.625Z,28.67
2018-07-08T08:01:54.038Z,28.61
2018-07-08T08:02:34.639Z,28.51
2018-07-08T08:03:15.168Z,28.56
2018-07-08T08:03:55.756Z,28.74
2018-07-08T08:04:36.218Z,28.74
2018-07-08T08:05:16.858Z,28.76
2018-07-08T08:05:57.325Z,28.62
2018-07-08T08:06:37.803Z,28.61
2018-07-08T08:07:18.288Z,28.61
2018-07-08T08:07:58.791Z,28.51
2018-07-08T08:08:39.341Z,28.67
2018-07-08T08:09:19.853Z,28.56
2018-07-08T08:10:00.469Z,28.62
2018-07-08T08:10:41.023Z,28.62
2018-07-08T08:11:21.546Z,28.51
2018-07-08T08:12:02.018Z,28.64
2018-07-08T08:12:42.584Z,28.67
2018-07-08T08:13:23.075Z,28.61
2018-07-08T08:14:03.681Z,28.49
2018-07-08T08:14:44.178Z,28.58
2018-07-08T08:15:24.661Z,28.54
2018-07-08T08:16:05.188Z,28.52
2018-07-08T08:16:45.659Z,28.52
2018-07-08T08:17:26.213Z,28.52
2018-07-08T08:18:06.735Z,28.52
2018-07-08T08:18:47.374Z,28.54
2018-07-08T08:19:27.930Z,28.61
2018-07-08T08:20:08.492Z,28.62
2018-07-08T08:20:48.952Z,28.66
2018-07-08T08:21:29.469Z,28.67
2018-07-08T08:22:10.005Z,28.66
2018-07-08T08:22:50.517Z,28.62
2018-07-08T08:23:30.951Z,28.66
2018-07-08T08:24:11.476Z,28.68
2018-07-08T08:24:51.994Z,28.66
2018-07-08T08:25:32.515Z,28.58
2018-07-08T08:26:13.023Z,28.54
2018-07-08T08:26:53.562Z,28.39
2018-07-08T08:27:34.118Z,28.24
2018-07-08T08:28:14.645Z,28.21
2018-07-08T08:28:55.155Z,28.19
2018-07-08T08:29:35.613Z,28.24
2018-07-08T08:30:16.149Z,28.33
2018-07-08T08:30:56.645Z,28.3
2018-07-08T08:31:37.181Z,28.21
2018-07-08T08:32:17.708Z,28.24
2018-07-08T08:32:58.168Z,28.17
2018-07-08T08:33:38.727Z,28.12
2018-07-08T08:34:19.230Z,28.09
2018-07-08T08:35:00.664Z,28.19
2018-07-08T08:35:41.251Z,28.12
2018-07-08T08:36:22.025Z,27.99
2018-07-08T08:37:02.549Z,28.03
2018-07-08T08:37:43.060Z,27.99
2018-07-08T08:38:24.136Z,27.92
2018-07-08T08:39:04.697Z,27.99
2018-07-08T08:39:45.161Z,27.94
2018-07-08T08:40:25.670Z,27.97
2018-07-08T08:41:06.127Z,27.78
2018-07-08T08:41:46.658Z,27.81
2018-07-08T08:42:27.207Z,27.82
2018-07-08T08:43:07.728Z,27.77
2018-07-08T08:43:48.223Z,27.82
2018-07-08T08:44:28.753Z,27.99
2018-07-08T08:45:09.234Z,27.92
2018-07-08T08:45:49.820Z,27.9
2018-07-08T08:46:30.290Z,27.72